createdAt,value
2018-04-16T00:01:26.107Z,5.57
2018-04-16T00:03:53.639Z,5.57
2018-04-16T00:06:21.903Z,5.83
2018-04-16T00:08:49.407Z,6.93
2018-04-16T00:11:16.941Z,6.63
2018-04-16T00:13:45.219Z,5.00
2018-04-16T00:16:12.740Z,3.37
2018-04-16T00:18:41.041Z,3.10
2018-04-16T00:21:09.331Z,2.87
2018-04-16T00:23:36.837Z,3.80
2018-04-16T00:26:04.329Z,4.83
2018-04-16T00:28:32.620Z,4.10
2018-04-16T00:31:00.119Z,4.50
2018-04-16T00:33:33.372Z,3.70
2018-04-16T00:36:06.645Z,6.33
2018-04-16T00:38:40.561Z,5.10
2018-04-16T00:41:13.689Z,3.00
2018-04-16T00:43:47.029Z,5.30
2018-04-16T00:46:21.031Z,3.00
2018-04-16T00:51:56.684Z,5.50
2018-04-16T00:54:29.980Z,3.70
2018-04-16T00:57:03.317Z,3.03
2018-04-16T00:59:36.551Z,5.10
2018-04-16T01:02:10.708Z,3.17
2018-04-16T01:04:43.888Z,2.80
2018-04-16T01:07:17.913Z,3.53
2018-04-16T01:09:51.192Z,3.70
2018-04-16T01:12:25.225Z,4.30
2018-04-16T01:14:58.406Z,4.57
2018-04-16T01:17:31.683Z,3.10
2018-04-16T01:20:05.758Z,3.87
2018-04-16T01:22:39.104Z,5.30
2018-04-16T01:25:12.416Z,5.50
2018-04-16T01:27:46.705Z,7.07
2018-04-16T01:30:20.807Z,3.27
2018-04-16T01:32:55.679Z,8.20
2018-04-16T01:35:28.878Z,3.70
2018-04-16T01:38:02.062Z,5.63
2018-04-16T01:40:35.124Z,6.00
2018-04-16T01:43:08.368Z,4.67
2018-04-16T01:45:41.450Z,3.93
2018-04-16T01:48:14.635Z,4.97
2018-04-16T01:50:47.897Z,4.63
2018-04-16T01:53:21.163Z,3.97
2018-04-16T01:55:55.219Z,7.70
2018-04-16T01:58:28.555Z,5.47
2018-04-16T02:01:02.501Z,3.87
2018-04-16T02:03:35.746Z,4.57
2018-04-16T02:06:08.920Z,5.00
2018-04-16T02:08:42.247Z,2.97
2018-04-16T02:11:16.247Z,3.80
2018-04-16T02:13:50.184Z,3.17
2018-04-16T02:16:24.327Z,4.03
2018-04-16T02:18:57.554Z,4.60
2018-04-16T02:21:30.664Z,3.47
2018-04-16T02:24:04.889Z,5.13
2018-04-16T02:29:45.127Z,2.90
2018-04-16T02:32:19.337Z,5.13
2018-04-16T02:34:52.623Z,3.00
2018-04-16T02:37:25.934Z,3.47
2018-04-16T02:39:59.943Z,3.67
2018-04-16T02:42:33.844Z,4.20
2018-04-16T02:45:07.744Z,3.23
2018-04-16T02:47:40.937Z,3.70
2018-04-16T02:50:14.159Z,4.40
2018-04-16T02:52:47.419Z,3.10
2018-04-16T02:55:20.633Z,4.90
2018-04-16T02:57:54.737Z,4.93
2018-04-16T03:00:28.815Z,4.20
2018-04-16T03:03:01.938Z,3.50
2018-04-16T03:05:35.928Z,3.10
2018-04-16T03:08:08.999Z,3.73
2018-04-16T03:10:42.190Z,3.37
2018-04-16T03:13:15.362Z,4.00
2018-04-16T03:15:48.652Z,3.27
2018-04-16T03:18:21.996Z,3.13
2018-04-16T03:20:56.029Z,3.03
2018-04-16T03:23:29.268Z,2.83
2018-04-16T03:26:02.484Z,3.10
2018-04-16T03:28:35.821Z,5.23
2018-04-16T03:31:08.904Z,4.43
2018-04-16T03:33:42.055Z,4.60
2018-04-16T03:36:15.159Z,4.73
2018-04-16T03:38:49.023Z,3.40
2018-04-16T03:41:22.195Z,6.03
2018-04-16T03:43:55.314Z,4.57
2018-04-16T03:46:28.495Z,2.53
2018-04-16T03:49:02.374Z,3.73
2018-04-16T03:51:29.922Z,4.00
2018-04-16T03:53:58.159Z,3.03
2018-04-16T03:56:26.461Z,3.30
2018-04-16T03:58:53.993Z,6.03
2018-04-16T04:01:22.294Z,4.50
2018-04-16T04:03:52.524Z,6.50
2018-04-16T04:06:20.019Z,4.37
2018-04-16T04:08:47.549Z,4.43
2018-04-16T04:11:15.058Z,5.17
2018-04-16T04:13:43.335Z,7.97
2018-04-16T04:16:11.621Z,3.07
2018-04-16T04:18:39.898Z,2.20
2018-04-16T04:21:08.183Z,3.00
2018-04-16T04:23:47.535Z,3.57
2018-04-16T04:26:27.054Z,3.20
2018-04-16T04:29:06.379Z,3.90
2018-04-16T04:31:33.927Z,5.10
2018-04-16T04:34:02.237Z,3.67
2018-04-16T04:36:29.729Z,3.17
2018-04-16T04:38:57.672Z,3.53
2018-04-16T04:41:25.167Z,6.07
2018-04-16T04:43:53.458Z,3.80
2018-04-16T04:46:21.732Z,2.97
2018-04-16T04:48:50.011Z,2.97
2018-04-16T04:51:18.290Z,3.30
2018-04-16T04:53:46.559Z,3.30
2018-04-16T04:56:14.847Z,4.53
2018-04-16T04:58:43.107Z,3.70
2018-04-16T05:01:11.383Z,4.67
2018-04-16T05:03:39.660Z,4.47
2018-04-16T05:06:07.926Z,4.00
2018-04-16T05:08:36.211Z,3.00
2018-04-16T05:11:04.483Z,4.13
2018-04-16T05:13:32.757Z,4.53
2018-04-16T05:16:01.052Z,3.07
2018-04-16T05:18:28.547Z,4.90
2018-04-16T05:20:56.079Z,3.67
2018-04-16T05:23:23.603Z,3.20
2018-04-16T05:25:51.883Z,3.63
2018-04-16T05:28:20.222Z,3.20
2018-04-16T05:30:47.712Z,3.00
2018-04-16T05:33:17.946Z,4.53
2018-04-16T05:35:46.211Z,3.97
2018-04-16T05:38:14.471Z,2.30
2018-04-16T05:40:43.938Z,3.23
2018-04-16T05:43:11.442Z,2.83
2018-04-16T05:45:39.861Z,10.13
2018-04-16T05:48:07.673Z,3.07
2018-04-16T05:50:36.135Z,4.10
2018-04-16T05:53:03.863Z,2.53
2018-04-16T05:55:31.625Z,3.60
2018-04-16T05:58:00.413Z,2.57
2018-04-16T06:00:28.176Z,2.93
2018-04-16T06:02:55.987Z,3.90
2018-04-16T06:05:23.761Z,4.60
2018-04-16T06:07:52.387Z,5.10
2018-04-16T06:10:20.254Z,5.20
2018-04-16T06:12:48.078Z,3.27
2018-04-16T06:15:15.983Z,3.40
2018-04-16T06:17:43.748Z,2.87
2018-04-16T06:20:11.620Z,3.57
2018-04-16T06:22:39.376Z,2.53
2018-04-16T06:25:07.141Z,3.47
2018-04-16T06:27:34.685Z,3.20
2018-04-16T06:30:02.196Z,3.67
2018-04-16T06:32:32.135Z,8.90
2018-04-16T06:35:00.424Z,20.43
2018-04-16T06:37:27.933Z,55.83
2018-04-16T06:39:55.457Z,89.90
2018-04-16T06:42:23.005Z,117.87
2018-04-16T06:44:51.303Z,129.57
2018-04-16T06:47:18.835Z,125.27
2018-04-16T06:49:46.362Z,119.93
2018-04-16T06:52:14.646Z,114.00
2018-04-16T06:54:42.922Z,104.17
2018-04-16T06:57:11.207Z,90.47
2018-04-16T06:59:39.500Z,83.30
2018-04-16T07:02:07.149Z,70.00
2018-04-16T07:04:34.675Z,88.23
2018-04-16T07:07:02.232Z,60.07
2018-04-16T07:09:29.746Z,73.90
2018-04-16T07:11:57.272Z,83.03
2018-04-16T07:14:24.772Z,64.87
2018-04-16T07:16:52.275Z,61.57
2018-04-16T07:19:20.570Z,53.47
2018-04-16T07:21:48.088Z,75.93
2018-04-16T07:24:15.624Z,60.40
2018-04-16T07:26:43.136Z,53.40
2018-04-16T07:29:10.646Z,53.07
2018-04-16T07:31:38.171Z,45.83
2018-04-16T07:34:06.609Z,53.53
2018-04-16T07:36:34.132Z,49.93
2018-04-16T07:39:01.659Z,39.57
2018-04-16T07:41:29.166Z,32.10
2018-04-16T07:43:56.696Z,44.57
2018-04-16T07:46:24.209Z,41.97
2018-04-16T07:48:52.486Z,44.67
2018-04-16T07:51:20.032Z,57.00
2018-04-16T07:53:48.299Z,49.50
2018-04-16T07:56:15.822Z,41.77
2018-04-16T07:58:43.324Z,36.57
2018-04-16T08:01:11.599Z,35.17
2018-04-16T08:03:39.890Z,28.33
2018-04-16T08:06:07.402Z,29.10
2018-04-16T08:08:34.931Z,24.70
2018-04-16T08:11:02.435Z,30.97
2018-04-16T08:13:30.706Z,30.53
2018-04-16T08:15:59.022Z,29.70
2018-04-16T08:18:26.531Z,31.33
2018-04-16T08:20:54.815Z,27.83
2018-04-16T08:23:22.314Z,30.10
2018-04-16T08:25:49.831Z,21.83
2018-04-16T08:28:19.090Z,27.83
2018-04-16T08:30:46.586Z,31.33
2018-04-16T08:33:14.171Z,16.67
2018-04-16T08:35:42.428Z,22.27
2018-04-16T08:38:10.716Z,26.33
2018-04-16T08:40:38.247Z,14.60
2018-04-16T08:43:05.747Z,20.50
2018-04-16T08:45:33.271Z,27.27
2018-04-16T08:48:02.540Z,27.33
2018-04-16T08:50:30.037Z,24.17
2018-04-16T08:52:57.569Z,18.03
2018-04-16T08:55:25.854Z,16.20
2018-04-16T08:57:54.164Z,18.57
2018-04-16T09:00:21.664Z,13.60
2018-04-16T09:02:49.185Z,21.17
2018-04-16T09:05:16.676Z,20.07
2018-04-16T09:07:44.187Z,10.20
2018-04-16T09:10:11.704Z,21.17
2018-04-16T09:12:40.135Z,17.23
2018-04-16T09:15:07.665Z,13.40
2018-04-16T09:17:35.933Z,12.27
2018-04-16T09:20:05.186Z,16.70
2018-04-16T09:22:34.656Z,9.30
2018-04-16T09:25:02.159Z,16.57
2018-04-16T09:27:29.706Z,14.30
2018-04-16T09:29:57.203Z,13.70
2018-04-16T09:32:25.546Z,18.17
2018-04-16T09:34:53.039Z,11.20
2018-04-16T09:37:21.299Z,10.00
2018-04-16T09:39:48.819Z,20.60
2018-04-16T09:42:17.254Z,9.83
2018-04-16T09:44:45.558Z,11.03
2018-04-16T09:47:13.060Z,16.93
2018-04-16T09:49:40.584Z,14.60
2018-04-16T09:52:09.038Z,9.73
2018-04-16T09:54:36.539Z,11.50
2018-04-16T09:57:04.071Z,12.70
2018-04-16T09:59:31.596Z,8.80
2018-04-16T10:01:59.884Z,7.17
2018-04-16T10:04:27.391Z,7.47
2018-04-16T10:06:54.918Z,7.20
2018-04-16T10:09:22.424Z,8.97
2018-04-16T10:11:50.688Z,8.93
2018-04-16T10:14:18.205Z,13.03
2018-04-16T10:16:45.706Z,12.03
2018-04-16T10:19:15.974Z,8.50
2018-04-16T10:21:43.520Z,6.97
2018-04-16T10:24:11.807Z,8.03
2018-04-16T10:26:39.303Z,10.13
2018-04-16T10:29:06.798Z,11.73
2018-04-16T10:31:35.071Z,7.83
2018-04-16T10:34:03.343Z,14.57
2018-04-16T10:36:32.527Z,7.73
2018-04-16T10:39:00.979Z,6.60
2018-04-16T10:41:28.494Z,6.50
2018-04-16T10:43:56.000Z,8.90
2018-04-16T10:46:23.491Z,5.37
2018-04-16T10:48:51.794Z,6.90
2018-04-16T10:51:19.286Z,4.53
2018-04-16T10:53:46.808Z,6.93
2018-04-16T10:56:14.313Z,6.17
2018-04-16T10:58:41.832Z,7.57
2018-04-16T11:01:09.351Z,8.40
2018-04-16T11:03:38.552Z,8.50
2018-04-16T11:06:06.839Z,6.83
2018-04-16T11:08:34.342Z,7.17
2018-04-16T11:11:01.856Z,5.70
2018-04-16T11:13:29.355Z,5.93
2018-04-16T11:15:56.874Z,6.70
2018-04-16T11:18:24.373Z,5.70
2018-04-16T11:20:51.883Z,6.00
2018-04-16T11:23:19.403Z,9.70
2018-04-16T11:25:47.688Z,6.13
2018-04-16T11:28:15.200Z,6.30
2018-04-16T11:30:42.703Z,5.30
2018-04-16T11:33:10.222Z,6.53
2018-04-16T11:35:37.732Z,4.53
2018-04-16T11:38:06.003Z,9.93
2018-04-16T11:40:36.272Z,6.53
2018-04-16T11:43:04.715Z,6.20
2018-04-16T11:45:33.032Z,8.03
2018-04-16T11:48:00.539Z,4.13
2018-04-16T11:50:28.815Z,5.70
2018-04-16T11:52:57.087Z,6.37
2018-04-16T11:55:25.353Z,5.43
2018-04-16T11:57:53.639Z,5.00
2018-04-16T12:00:22.123Z,4.30
2018-04-16T12:02:50.404Z,4.63
2018-04-16T12:05:17.902Z,4.07
2018-04-16T12:07:45.434Z,2.83
2018-04-16T12:10:12.935Z,4.93
2018-04-16T12:12:40.442Z,3.33
2018-04-16T12:15:09.899Z,5.50
2018-04-16T12:17:37.401Z,4.17
2018-04-16T12:20:04.921Z,4.53
2018-04-16T12:22:32.439Z,5.53
2018-04-16T12:25:00.000Z,6.73
2018-04-16T12:27:28.452Z,4.30
2018-04-16T12:29:55.950Z,5.90
2018-04-16T12:32:23.465Z,5.40
2018-04-16T12:34:50.967Z,4.90
2018-04-16T12:37:18.500Z,4.17
2018-04-16T12:39:46.975Z,4.27
2018-04-16T12:42:14.499Z,4.40
2018-04-16T12:44:42.775Z,3.60
2018-04-16T12:47:11.051Z,5.27
2018-04-16T12:49:40.288Z,5.37
2018-04-16T12:52:07.794Z,3.93
2018-04-16T12:54:35.334Z,3.53
2018-04-16T12:57:02.863Z,3.63
2018-04-16T12:59:30.395Z,3.60
2018-04-16T13:01:57.895Z,6.97
2018-04-16T13:04:25.382Z,3.77
2018-04-16T13:06:53.681Z,4.23
2018-04-16T13:09:21.190Z,3.33
2018-04-16T13:11:48.704Z,2.40
2018-04-16T13:14:17.163Z,2.90
2018-04-16T13:16:45.446Z,5.50
2018-04-16T13:19:12.938Z,4.50
2018-04-16T13:21:40.427Z,3.50
2018-04-16T13:24:07.970Z,5.87
2018-04-16T13:26:36.410Z,4.47
2018-04-16T13:29:03.928Z,3.70
2018-04-16T13:31:31.424Z,2.67
2018-04-16T13:33:59.275Z,3.60
2018-04-16T13:36:27.574Z,5.43
2018-04-16T13:38:55.064Z,4.00
2018-04-16T13:41:22.585Z,5.37
2018-04-16T13:43:50.098Z,3.47
2018-04-16T13:46:18.391Z,5.40
2018-04-16T13:48:46.651Z,5.00
2018-04-16T13:51:14.946Z,4.37
2018-04-16T13:53:42.439Z,2.60
2018-04-16T13:56:09.936Z,4.53
2018-04-16T13:58:37.471Z,3.03
2018-04-16T14:01:04.975Z,4.90
2018-04-16T14:03:32.490Z,2.80
2018-04-16T14:05:59.979Z,4.87
2018-04-16T14:08:28.262Z,4.73
2018-04-16T14:10:56.736Z,6.73
2018-04-16T14:13:25.003Z,2.87
2018-04-16T14:15:53.302Z,3.63
2018-04-16T14:18:21.755Z,2.70
2018-04-16T14:20:50.079Z,4.13
2018-04-16T14:23:17.591Z,4.13
2018-04-16T14:25:45.850Z,4.30
2018-04-16T14:28:13.384Z,4.33
2018-04-16T14:30:40.880Z,3.73
2018-04-16T14:33:09.167Z,4.57
2018-04-16T14:35:37.447Z,5.60
2018-04-16T14:38:04.962Z,2.77
2018-04-16T14:40:32.454Z,3.23
2018-04-16T14:43:00.726Z,3.20
2018-04-16T14:45:30.951Z,3.23
2018-04-16T14:47:59.222Z,4.43
2018-04-16T14:50:27.505Z,5.17
2018-04-16T14:52:55.001Z,3.73
2018-04-16T14:55:22.530Z,3.50
2018-04-16T14:57:50.032Z,3.93
2018-04-16T15:00:19.035Z,2.90
2018-04-16T15:02:46.557Z,2.70
2018-04-16T15:05:14.056Z,3.23
2018-04-16T15:07:42.352Z,3.70
2018-04-16T15:10:09.844Z,3.00
2018-04-16T15:12:37.363Z,5.13
2018-04-16T15:15:05.628Z,3.30
2018-04-16T15:17:33.888Z,4.17
2018-04-16T15:20:01.428Z,4.40
2018-04-16T15:22:28.927Z,2.60
2018-04-16T15:24:57.236Z,5.30
2018-04-16T15:27:24.726Z,3.40
2018-04-16T15:29:52.255Z,4.13
2018-04-16T15:32:19.761Z,4.57
2018-04-16T15:34:48.034Z,3.83
2018-04-16T15:37:16.324Z,2.97
2018-04-16T15:39:44.582Z,4.10
2018-04-16T15:42:12.100Z,4.90
2018-04-16T15:44:39.598Z,3.27
2018-04-16T15:47:08.824Z,4.17
2018-04-16T15:49:36.326Z,3.37
2018-04-16T15:52:03.826Z,2.73
2018-04-16T15:54:31.349Z,2.00
2018-04-16T15:56:59.622Z,2.90
2018-04-16T15:59:28.660Z,2.77
2018-04-16T16:01:56.170Z,2.40
2018-04-16T16:04:23.929Z,3.03
2018-04-16T16:06:52.390Z,2.30
2018-04-16T16:09:19.887Z,2.87
2018-04-16T16:11:48.196Z,3.33
2018-04-16T16:14:15.691Z,3.47
2018-04-16T16:16:43.221Z,2.50
2018-04-16T16:19:10.731Z,2.50
2018-04-16T16:21:39.019Z,2.60
2018-04-16T16:24:07.287Z,2.40
2018-04-16T16:26:35.556Z,4.00
2018-04-16T16:29:03.085Z,2.77
2018-04-16T16:31:31.661Z,2.93
2018-04-16T16:33:59.186Z,2.40
2018-04-16T16:36:26.689Z,3.93
2018-04-16T16:38:54.223Z,2.50
2018-04-16T16:41:21.715Z,2.10
2018-04-16T16:43:51.691Z,3.07
2018-04-16T16:46:19.207Z,4.57
2018-04-16T16:48:46.704Z,2.97
2018-04-16T16:51:14.271Z,2.80
2018-04-16T16:53:41.796Z,2.80
2018-04-16T16:56:09.339Z,3.33
2018-04-16T16:58:37.605Z,3.73
2018-04-16T17:01:05.887Z,3.23
2018-04-16T17:03:33.419Z,3.20
2018-04-16T17:06:02.435Z,2.37
2018-04-16T17:08:30.719Z,5.50
2018-04-16T17:10:58.236Z,2.60
2018-04-16T17:13:25.760Z,2.40
2018-04-16T17:15:54.240Z,2.47
2018-04-16T17:18:21.737Z,2.87
2018-04-16T17:20:49.265Z,2.53
2018-04-16T17:23:16.768Z,3.40
2018-04-16T17:25:44.300Z,2.70
2018-04-16T17:28:11.795Z,2.67
2018-04-16T17:30:40.060Z,3.40
2018-04-16T17:33:08.357Z,2.70
2018-04-16T17:35:35.874Z,2.50
2018-04-16T17:38:03.400Z,2.33
2018-04-16T17:40:30.940Z,3.47
2018-04-16T17:42:58.476Z,2.50
2018-04-16T17:45:26.743Z,2.80
2018-04-16T17:47:55.011Z,3.17
2018-04-16T17:50:23.320Z,3.03
2018-04-16T17:52:50.834Z,2.63
2018-04-16T17:55:18.387Z,3.83
2018-04-16T17:57:45.902Z,2.27
2018-04-16T18:00:15.400Z,3.50
2018-04-16T18:02:42.912Z,2.87
2018-04-16T18:05:11.941Z,2.23
2018-04-16T18:07:39.473Z,2.60
2018-04-16T18:10:07.757Z,2.60
2018-04-16T18:12:36.055Z,2.37
2018-04-16T18:15:03.582Z,2.70
2018-04-16T18:17:31.882Z,2.43
2018-04-16T18:19:59.396Z,2.57
2018-04-16T18:22:26.896Z,2.77
2018-04-16T18:24:54.465Z,2.93
2018-04-16T18:27:21.978Z,2.93
2018-04-16T18:29:51.235Z,3.37
2018-04-16T18:32:18.731Z,2.30
2018-04-16T18:34:47.763Z,3.83
2018-04-16T18:37:15.268Z,3.47
2018-04-16T18:39:42.766Z,3.00
2018-04-16T18:42:11.096Z,4.40
2018-04-16T18:44:38.590Z,2.67
2018-04-16T18:47:06.879Z,5.17
2018-04-16T18:49:34.391Z,5.83
2018-04-16T18:52:03.449Z,2.60
2018-04-16T18:54:30.951Z,3.07
2018-04-16T18:56:58.467Z,4.07
2018-04-16T18:59:26.004Z,2.30
2018-04-16T19:01:53.506Z,2.50
2018-04-16T19:04:22.992Z,2.43
2018-04-16T19:06:50.500Z,2.33
2018-04-16T19:09:18.791Z,2.93
2018-04-16T19:11:46.298Z,2.93
2018-04-16T19:14:13.798Z,5.20
2018-04-16T19:16:42.079Z,3.17
2018-04-16T19:19:10.401Z,3.10
2018-04-16T19:21:44.261Z,3.00
2018-04-16T19:24:12.530Z,2.73
2018-04-16T19:26:46.431Z,2.90
2018-04-16T19:29:14.711Z,3.30
2018-04-16T19:31:42.999Z,3.20
2018-04-16T19:34:16.288Z,3.00
2018-04-16T19:36:43.815Z,5.60
2018-04-16T19:39:11.312Z,4.90
2018-04-16T19:41:44.438Z,3.50
2018-04-16T19:44:11.943Z,3.40
2018-04-16T19:46:40.206Z,3.40
2018-04-16T19:49:15.259Z,2.93
2018-04-16T19:51:42.774Z,7.43
2018-04-16T19:54:10.599Z,3.30
2018-04-16T19:56:44.135Z,5.40
2018-04-16T19:59:11.899Z,4.33
2018-04-16T20:01:39.763Z,3.90
2018-04-16T20:04:08.668Z,3.20
2018-04-16T20:06:37.111Z,2.73
2018-04-16T20:09:06.087Z,3.50
2018-04-16T20:11:33.948Z,4.13
2018-04-16T20:14:01.614Z,3.50
2018-04-16T20:16:29.372Z,2.90
2018-04-16T20:18:57.137Z,3.70
2018-04-16T20:21:24.897Z,3.97
2018-04-16T20:23:52.733Z,2.40
2018-04-16T20:26:21.186Z,3.07
2018-04-16T20:28:50.037Z,3.30
2018-04-16T20:31:17.896Z,4.20
2018-04-16T20:33:45.762Z,3.07
2018-04-16T20:36:14.650Z,3.30
2018-04-16T20:38:42.418Z,3.60
2018-04-16T20:41:11.136Z,3.27
2018-04-16T20:43:38.795Z,3.10
2018-04-16T20:46:08.467Z,3.10
2018-04-16T20:48:36.232Z,3.23
2018-04-16T20:51:03.918Z,3.10
2018-04-16T20:53:31.454Z,4.00
2018-04-16T20:55:58.978Z,3.30
2018-04-16T20:58:27.259Z,4.37
2018-04-16T21:00:54.763Z,3.93
2018-04-16T21:03:22.286Z,3.27
2018-04-16T21:05:49.826Z,3.77
2018-04-16T21:08:20.784Z,2.77
2018-04-16T21:10:50.315Z,2.47
2018-04-16T21:13:17.816Z,4.23
2018-04-16T21:15:46.156Z,2.80
2018-04-16T21:18:13.675Z,2.43
2018-04-16T21:20:42.182Z,3.73
2018-04-16T21:23:11.684Z,2.60
2018-04-16T21:25:39.175Z,2.87
2018-04-16T21:28:07.472Z,3.57
2018-04-16T21:30:35.764Z,3.23
2018-04-16T21:33:03.286Z,3.83
2018-04-16T21:35:31.573Z,2.70
2018-04-16T21:37:59.860Z,3.83
2018-04-16T21:40:30.100Z,4.23
2018-04-16T21:42:57.602Z,7.30
2018-04-16T21:45:25.108Z,3.33
2018-04-16T21:47:52.627Z,3.00
2018-04-16T21:50:20.888Z,3.30
2018-04-16T21:52:48.412Z,3.20
2018-04-16T21:55:15.902Z,4.07
2018-04-16T21:57:43.425Z,4.20
2018-04-16T22:00:11.882Z,2.43
2018-04-16T22:02:39.376Z,3.97
2018-04-16T22:05:06.898Z,3.93
2018-04-16T22:07:34.396Z,3.40
2018-04-16T22:10:01.917Z,3.57
2018-04-16T22:12:29.422Z,3.70
2018-04-16T22:14:56.959Z,4.70
2018-04-16T22:17:24.484Z,3.60
2018-04-16T22:19:52.004Z,2.93
2018-04-16T22:22:20.295Z,3.10
2018-04-16T22:24:48.587Z,2.50
2018-04-16T22:27:16.096Z,2.57
2018-04-16T22:29:43.624Z,3.27
2018-04-16T22:32:11.143Z,2.93
2018-04-16T22:34:39.766Z,3.70
2018-04-16T22:37:07.308Z,3.77
2018-04-16T22:39:36.109Z,2.23
2018-04-16T22:42:04.896Z,3.30
2018-04-16T22:44:32.883Z,3.13
2018-04-16T22:47:01.823Z,3.13
2018-04-16T22:49:31.363Z,4.30
2018-04-16T22:51:59.327Z,3.13
2018-04-16T22:54:26.859Z,2.77
2018-04-16T22:56:55.155Z,2.67
2018-04-16T22:59:22.929Z,2.70
2018-04-16T23:01:50.788Z,3.60
2018-04-16T23:04:19.620Z,2.77
2018-04-16T23:06:47.392Z,5.77
2018-04-16T23:09:16.329Z,2.33
2018-04-16T23:11:44.134Z,2.80
2018-04-16T23:14:14.418Z,2.40
2018-04-16T23:16:42.281Z,3.60
2018-04-16T23:19:09.819Z,3.73
2018-04-16T23:21:37.343Z,3.83
2018-04-16T23:24:05.695Z,2.50
2018-04-16T23:26:33.204Z,4.17
2018-04-16T23:29:02.735Z,2.50
2018-04-16T23:31:31.624Z,3.33
2018-04-16T23:34:00.716Z,2.77
2018-04-16T23:36:28.240Z,2.37
2018-04-16T23:38:56.499Z,3.03
2018-04-16T23:41:24.778Z,2.60
2018-04-16T23:43:53.779Z,3.57
2018-04-16T23:46:22.063Z,4.80
2018-04-16T23:48:50.351Z,2.83
2018-04-16T23:51:17.840Z,3.20
2018-04-16T23:53:45.383Z,2.90
2018-04-16T23:56:12.899Z,5.20
2018-04-16T23:58:41.179Z,4.73
